Airfield :







YOU CAN JOIN US ON...

 
LOGIN :

Register | Disclaimer

   EN    FR    IT 

 









Legend :    VFR   Marginal VFR   IFR   Intensive IFR   Very Intensive IFR
Visi :
Ceiling :
>= 8 km
>= 3000ft
5 to 8 km
1000 to 3000 ft
1500m to 5 km
500 to 1000 ft
800 to 1500m
200 to 500 ft
< 800m
< 200 ft
Symbols :   Thunderstorms  Fog  Heavy snow  Heavy precipitations  Wind > 20 kt






- Airport Elevation : 20 ft
- IATA code : BOS


KBOS - General Edward Lawrence Logan International

CURRENT METAR :
  • 260137Z 11021G33KT 1/2SM R04R/P6000FT RA BR OVC004 08/06 A2978 RMK AO2 PK WND 11033/0136 SFC VIS 2 P0005 T00830061

EXPIRED METARs :
  • 260054Z 10018G29KT 2SM RA BR OVC004 08/06 A2983 RMK AO2 PK WND 09032/0032 SLP100 P0011 T00780056
  • 260042Z 10022G29KT 2SM -RA BR OVC004 08/06 A2984 RMK AO2 PK WND 09032/0032 P0006 T00780056
  • 252354Z 09018KT 2SM -RA BR OVC005 08/06 A2989 RMK AO2 TWR VIS 2 1/2 PRESFR SLP122 P0007 60010 T00780056 10078 20067 58046
  • 252312Z 09016KT 2 1/2SM RA BR OVC006 07/05 A2995 RMK AO2 P0002 T00720050

TAF KBOS
Valid from the 26 at 00:00 until the 27 at 06:00 UTC


252339Z 2600/2706 10018G28KT 4SM -RA OVC008
FM260100 11015G24KT 1 1/2SM +RA OVC003
FM260400 17010KT 3SM -RA OVC003
FM260800 23007KT 4SM BR OVC010
FM261300 25010KT P6SM BKN070
FM261500 26011G18KT P6SM SCT180



MET'MAP, your aeronautical weather chart ! - Copyright ORBIFLY December 2007 - Disclaimer

ORBIFLY MET'MAP TEAM :

Programming & Development : Alexandra Zaïnal
Concept & original design : Baudouin d'Aumeries
Assistance for programming : Marc-Olivier Méhu
Technical & hardware support : Manuel Goepfert

Contact : metmap@orbifly.com




SOURCES & CREDITS :

   NOAA